Time;durP1;ratioP1;P1;durP2;ratioP2;P2;SDS_P1;SDS_P2;PMS_P1;PMS_P2;Temp;Humidity;BMP_temperature;BMP_pressure;BME280_temperature;BME280_humidity;BME280_pressure;Samples;Min_cycle;Max_cycle;Signal;HPM_P1;HPM_P2
2021/11/26 00:00:21;;;;;;;22.65;13.60;;;1.70;99.90;;;;;;5056971;28;20052;-87
2021/11/26 00:02:48;;;;;;;20.77;13.85;;;1.80;99.90;;;;;;5072798;28;20408;-87
2021/11/26 00:05:15;;;;;;;22.00;13.40;;;1.90;99.90;;;;;;5072885;28;20449;-87
2021/11/26 00:07:41;;;;;;;21.35;14.38;;;1.90;99.90;;;;;;5054947;28;20072;-87
2021/11/26 00:10:09;;;;;;;21.55;13.98;;;1.90;99.90;;;;;;5055345;28;20087;-87
2021/11/26 00:12:36;;;;;;;19.83;13.82;;;2.00;99.90;;;;;;5055149;28;20045;-87
2021/11/26 00:15:13;;;;;;;19.40;12.88;;;2.00;99.90;;;;;;5072636;28;20049;-87
2021/11/26 00:17:48;;;;;;;20.67;13.80;;;2.10;99.90;;;;;;5077499;28;20139;-87
2021/11/26 00:20:16;;;;;;;18.05;12.45;;;2.00;99.90;;;;;;5057218;28;20530;-87
2021/11/26 00:22:43;;;;;;;17.23;11.98;;;2.00;99.90;;;;;;5058390;28;20044;-87
2021/11/26 00:25:10;;;;;;;18.08;12.65;;;2.10;99.90;;;;;;5058660;28;20090;-87
2021/11/26 00:27:37;;;;;;;17.48;11.95;;;2.10;99.90;;;;;;5058243;28;20445;-87
2021/11/26 00:30:05;;;;;;;17.80;12.10;;;2.10;99.90;;;;;;5058358;28;20045;-87
2021/11/26 00:32:32;;;;;;;19.42;11.70;;;2.00;99.90;;;;;;5058232;28;20127;-87
2021/11/26 00:34:59;;;;;;;19.40;12.35;;;2.00;99.90;;;;;;5058040;28;20052;-87
2021/11/26 00:37:26;;;;;;;19.65;13.27;;;2.00;99.90;;;;;;5058451;28;20050;-87
2021/11/26 00:39:52;;;;;;;18.83;12.70;;;2.00;99.90;;;;;;5057766;28;20480;-87
2021/11/26 00:42:19;;;;;;;18.88;12.63;;;2.00;99.90;;;;;;5057881;28;20127;-87
2021/11/26 00:44:47;;;;;;;21.20;14.00;;;2.00;99.90;;;;;;5058023;28;20054;-87
2021/11/26 00:47:13;;;;;;;19.50;13.23;;;2.00;99.90;;;;;;5058072;28;20044;-87
2021/11/26 00:49:41;;;;;;;20.35;13.43;;;2.10;99.90;;;;;;5058531;28;20049;-87
2021/11/26 00:52:07;;;;;;;20.10;13.63;;;2.10;99.90;;;;;;5057818;28;20048;-87
2021/11/26 00:54:34;;;;;;;17.95;13.18;;;2.10;99.90;;;;;;5075105;28;20044;-87
2021/11/26 00:57:06;;;;;;;20.27;13.73;;;2.20;99.90;;;;;;5057994;28;20419;-87
2021/11/26 00:59:35;;;;;;;21.58;12.70;;;2.20;99.90;;;;;;5057646;28;20503;-87
2021/11/26 01:02:03;;;;;;;15.65;11.75;;;2.20;99.90;;;;;;5076158;28;20377;-86
2021/11/26 01:04:31;;;;;;;19.83;13.52;;;2.20;99.90;;;;;;5075376;28;20041;-86
2021/11/26 01:06:58;;;;;;;19.92;12.95;;;2.30;99.90;;;;;;5057486;28;20477;-86
2021/11/26 01:09:24;;;;;;;16.08;11.57;;;2.30;99.90;;;;;;5057409;28;20106;-85
2021/11/26 01:11:51;;;;;;;17.20;12.27;;;2.30;99.90;;;;;;5075188;28;20076;-87
2021/11/26 01:14:18;;;;;;;17.02;11.48;;;2.30;99.90;;;;;;5075231;28;20537;-87
2021/11/26 01:16:45;;;;;;;18.35;11.43;;;2.30;99.90;;;;;;5075013;28;20049;-85
2021/11/26 01:19:12;;;;;;;19.00;12.02;;;2.30;99.90;;;;;;5057245;28;20055;-87
2021/11/26 01:21:38;;;;;;;17.67;12.77;;;2.20;99.90;;;;;;5057140;28;20067;-87
2021/11/26 01:24:05;;;;;;;19.73;13.13;;;2.20;99.90;;;;;;5057314;28;20040;-87
2021/11/26 01:26:32;;;;;;;18.63;13.10;;;2.20;99.90;;;;;;5057433;28;20055;-87
2021/11/26 01:28:59;;;;;;;19.58;13.23;;;2.10;99.90;;;;;;5057485;28;20229;-88
2021/11/26 01:31:26;;;;;;;17.98;13.35;;;2.00;99.90;;;;;;5075250;28;20057;-88
2021/11/26 01:33:54;;;;;;;20.67;13.48;;;2.00;99.90;;;;;;5062776;28;20048;-87
2021/11/26 01:36:22;;;;;;;18.17;13.02;;;2.00;99.90;;;;;;5075261;28;20049;-88
2021/11/26 01:38:49;;;;;;;19.80;13.75;;;1.90;99.90;;;;;;5057202;28;20122;-87
2021/11/26 01:41:16;;;;;;;21.58;14.13;;;1.80;99.90;;;;;;5057225;28;20493;-88
2021/11/26 01:43:43;;;;;;;16.88;12.35;;;1.90;99.90;;;;;;5057187;28;20055;-88
2021/11/26 01:46:10;;;;;;;19.33;13.15;;;2.00;99.90;;;;;;5057117;28;20044;-87
2021/11/26 01:48:38;;;;;;;17.73;13.05;;;2.10;99.90;;;;;;5074478;28;20056;-87
2021/11/26 01:51:10;;;;;;;21.40;14.05;;;2.10;99.90;;;;;;5057099;28;20045;-87
2021/11/26 01:53:38;;;;;;;20.73;12.88;;;2.00;99.90;;;;;;5056990;28;20052;-87
2021/11/26 01:56:06;;;;;;;17.02;11.95;;;2.00;99.90;;;;;;5056901;28;20090;-87
2021/11/26 01:58:33;;;;;;;18.52;12.77;;;2.00;99.90;;;;;;5074357;28;20046;-87
2021/11/26 02:01:03;;;;;;;15.68;12.00;;;2.10;99.90;;;;;;5074004;28;20056;-87
2021/11/26 02:03:30;;;;;;;17.65;12.95;;;2.10;99.90;;;;;;5056473;28;20094;-87
2021/11/26 02:05:57;;;;;;;17.48;13.52;;;2.00;99.90;;;;;;5074232;28;20078;-86
2021/11/26 02:08:24;;;;;;;17.40;13.25;;;2.10;99.90;;;;;;5056379;28;20458;-87
2021/11/26 02:10:51;;;;;;;19.98;13.93;;;2.00;99.90;;;;;;5074019;28;20411;-87
2021/11/26 02:13:18;;;;;;;21.50;13.98;;;2.00;99.90;;;;;;5056442;28;20131;-87
2021/11/26 02:15:45;;;;;;;18.23;13.00;;;2.10;99.90;;;;;;5073800;28;20044;-87
2021/11/26 02:18:14;;;;;;;18.50;11.98;;;2.10;99.90;;;;;;5056044;28;20087;-87
2021/11/26 02:20:42;;;;;;;17.55;12.60;;;2.20;99.90;;;;;;5056311;28;20361;-87
2021/11/26 02:23:09;;;;;;;18.02;13.45;;;2.10;99.90;;;;;;5074055;28;20059;-87
2021/11/26 02:25:36;;;;;;;18.08;12.35;;;2.10;99.90;;;;;;5056416;28;20044;-87
2021/11/26 02:28:05;;;;;;;18.50;13.10;;;2.10;99.90;;;;;;5056324;28;20048;-87
2021/11/26 02:30:32;;;;;;;16.42;12.15;;;2.20;99.90;;;;;;5056030;28;20040;-87
2021/11/26 02:33:02;;;;;;;19.25;12.07;;;2.20;99.90;;;;;;5056348;28;20176;-87
2021/11/26 02:35:31;;;;;;;17.25;12.32;;;2.20;99.90;;;;;;5056147;28;20096;-87
2021/11/26 02:37:58;;;;;;;20.08;13.27;;;2.20;99.90;;;;;;5056412;28;20471;-86
2021/11/26 02:40:27;;;;;;;17.88;11.90;;;2.00;99.90;;;;;;5073823;28;20135;-87
2021/11/26 02:42:54;;;;;;;17.40;11.80;;;1.90;99.90;;;;;;5055625;28;20139;-87
2021/11/26 02:45:24;;;;;;;15.93;12.05;;;1.70;99.90;;;;;;5056531;28;20044;-87
2021/11/26 02:47:51;;;;;;;19.08;12.75;;;1.70;99.90;;;;;;5058410;28;20131;-87
2021/11/26 02:50:18;;;;;;;21.73;13.15;;;1.60;99.90;;;;;;5078101;28;20055;-87
2021/11/26 02:52:46;;;;;;;16.48;12.38;;;1.60;99.90;;;;;;5052733;28;20580;-87
2021/11/26 02:55:21;;;;;;;25.30;14.32;;;1.50;99.90;;;;;;5052588;28;20453;-87
2021/11/26 02:57:49;;;;;;;20.05;13.18;;;1.50;99.90;;;;;;5052792;28;20460;-87
2021/11/26 03:00:18;;;;;;;17.08;12.80;;;1.50;99.90;;;;;;5052544;28;20580;-87
2021/11/26 03:02:45;;;;;;;18.48;12.48;;;1.40;99.90;;;;;;5044117;28;20041;-88
2021/11/26 03:05:13;;;;;;;16.33;12.07;;;1.40;99.90;;;;;;5052443;28;20052;-87
2021/11/26 03:07:40;;;;;;;18.40;12.10;;;1.40;99.90;;;;;;5054809;28;20064;-87
2021/11/26 03:10:09;;;;;;;16.98;11.55;;;1.40;99.90;;;;;;5073378;28;20110;-87
2021/11/26 03:12:36;;;;;;;18.55;13.10;;;1.40;99.90;;;;;;5055658;28;20075;-87
2021/11/26 03:15:04;;;;;;;15.38;12.20;;;1.50;99.90;;;;;;5055963;28;20072;-87
2021/11/26 03:17:31;;;;;;;18.45;11.93;;;1.50;99.90;;;;;;5055502;28;20542;-87
2021/11/26 03:19:58;;;;;;;18.27;13.60;;;1.60;99.90;;;;;;5055798;28;20047;-87
2021/11/26 03:22:24;;;;;;;19.73;13.23;;;1.60;99.90;;;;;;5055617;28;20080;-87
2021/11/26 03:24:51;;;;;;;18.45;13.32;;;1.70;99.90;;;;;;5055751;28;20124;-87
2021/11/26 03:27:18;;;;;;;18.48;13.35;;;1.70;99.90;;;;;;5055836;28;20242;-87
2021/11/26 03:29:45;;;;;;;15.93;11.90;;;1.80;99.90;;;;;;5073287;28;20078;-87
2021/11/26 03:32:11;;;;;;;16.40;12.50;;;1.80;99.90;;;;;;5055661;28;20044;-87
2021/11/26 03:34:38;;;;;;;16.73;12.35;;;1.90;99.90;;;;;;5055380;28;20048;-87
2021/11/26 03:37:05;;;;;;;16.40;11.95;;;2.00;99.90;;;;;;5073034;28;20059;-87
2021/11/26 03:39:32;;;;;;;16.52;11.95;;;1.90;99.90;;;;;;5055696;28;20057;-87
2021/11/26 03:41:59;;;;;;;15.25;11.57;;;1.90;99.90;;;;;;5055790;28;20055;-87
2021/11/26 03:44:26;;;;;;;15.80;11.48;;;2.00;99.90;;;;;;5055542;28;20048;-86
2021/11/26 03:46:57;;;;;;;19.02;12.20;;;1.90;99.90;;;;;;5056467;28;20045;-87
2021/11/26 03:49:24;;;;;;;14.68;11.40;;;1.90;99.90;;;;;;5055206;28;20048;-86
2021/11/26 03:51:50;;;;;;;16.83;11.77;;;2.00;99.90;;;;;;5055378;28;20068;-87
2021/11/26 03:54:17;;;;;;;16.02;11.52;;;2.00;99.90;;;;;;5056901;28;20523;-87
2021/11/26 03:56:44;;;;;;;13.63;10.65;;;2.00;99.90;;;;;;5076574;28;20407;-87
2021/11/26 03:59:11;;;;;;;14.80;11.65;;;2.00;99.90;;;;;;5059243;28;20044;-87
2021/11/26 04:01:37;;;;;;;16.02;11.57;;;2.00;99.90;;;;;;5059099;28;20055;-87
2021/11/26 04:04:04;;;;;;;15.25;10.65;;;2.00;99.90;;;;;;5079047;28;20511;-87
2021/11/26 04:06:31;;;;;;;15.02;11.18;;;2.00;99.90;;;;;;5062465;28;20054;-87
2021/11/26 04:08:58;;;;;;;14.63;11.32;;;2.00;99.90;;;;;;5059119;28;20041;-87
2021/11/26 04:11:26;;;;;;;16.95;11.73;;;2.00;99.90;;;;;;5058826;28;20510;-87
2021/11/26 04:13:53;;;;;;;15.60;11.45;;;2.00;99.90;;;;;;5058765;28;20048;-88
2021/11/26 04:16:20;;;;;;;15.52;11.45;;;2.00;99.90;;;;;;5076218;28;20062;-87
2021/11/26 04:18:47;;;;;;;16.08;11.85;;;2.00;99.90;;;;;;5058646;28;20144;-87
2021/11/26 04:21:14;;;;;;;15.73;10.73;;;2.00;99.90;;;;;;5076469;28;20058;-87
2021/11/26 04:23:41;;;;;;;14.85;11.30;;;2.00;99.90;;;;;;5058906;28;20048;-87
2021/11/26 04:26:08;;;;;;;14.93;10.80;;;1.90;99.90;;;;;;5058644;28;20053;-87
2021/11/26 04:28:34;;;;;;;15.38;10.75;;;1.90;99.90;;;;;;5076268;28;20408;-87
2021/11/26 04:31:03;;;;;;;20.05;11.80;;;2.00;99.90;;;;;;5058203;28;20049;-88
2021/11/26 04:33:33;;;;;;;17.20;11.35;;;1.90;99.90;;;;;;5058125;28;20098;-87
2021/11/26 04:36:00;;;;;;;14.73;11.25;;;1.90;99.90;;;;;;5058574;28;20059;-88
2021/11/26 04:38:27;;;;;;;14.15;11.18;;;1.90;99.90;;;;;;5058493;28;20048;-88
2021/11/26 04:40:55;;;;;;;13.13;9.90;;;1.90;99.90;;;;;;5058696;28;20059;-88
2021/11/26 04:43:23;;;;;;;15.38;10.52;;;1.90;99.90;;;;;;5058438;28;20048;-87
2021/11/26 04:45:51;;;;;;;19.55;14.45;;;1.90;99.90;;;;;;5058389;28;20076;-87
2021/11/26 04:48:19;;;;;;;16.83;12.50;;;1.90;99.90;;;;;;5075907;28;20055;-88
2021/11/26 04:50:47;;;;;;;16.45;12.07;;;1.90;99.90;;;;;;5075800;28;20048;-87
2021/11/26 04:53:15;;;;;;;15.43;11.93;;;1.90;99.90;;;;;;5076024;28;20139;-87
2021/11/26 04:55:42;;;;;;;18.55;12.52;;;1.90;99.90;;;;;;5057993;28;20050;-87
2021/11/26 04:58:09;;;;;;;13.13;10.18;;;1.90;99.90;;;;;;5058165;28;20489;-87
2021/11/26 05:00:36;;;;;;;14.63;11.00;;;1.90;99.90;;;;;;5057991;28;20124;-86
2021/11/26 05:03:04;;;;;;;18.40;12.50;;;1.90;99.90;;;;;;5075873;28;20045;-87
2021/11/26 05:05:32;;;;;;;14.13;11.07;;;1.90;99.90;;;;;;5057650;28;20041;-87
2021/11/26 05:07:59;;;;;;;17.67;11.35;;;1.90;99.90;;;;;;5058166;28;20135;-88
2021/11/26 05:10:27;;;;;;;15.25;10.98;;;1.80;99.90;;;;;;5057797;28;20094;-87
2021/11/26 05:12:58;;;;;;;12.82;9.98;;;1.80;99.90;;;;;;5075629;28;20051;-87
2021/11/26 05:15:28;;;;;;;14.23;10.10;;;1.80;99.90;;;;;;5058196;28;20154;-88
2021/11/26 05:17:58;;;;;;;12.43;9.35;;;1.80;99.90;;;;;;5058685;28;20106;-87
2021/11/26 05:20:27;;;;;;;13.85;9.45;;;1.80;99.90;;;;;;5061970;28;20055;-87
2021/11/26 05:22:54;;;;;;;16.85;10.32;;;1.70;99.90;;;;;;5076184;28;20048;-87
2021/11/26 05:25:22;;;;;;;14.20;9.73;;;1.70;99.90;;;;;;5057409;28;20071;-84
2021/11/26 05:27:50;;;;;;;14.75;9.85;;;1.70;99.90;;;;;;5057735;28;20139;-87
2021/11/26 05:30:17;;;;;;;11.98;9.13;;;1.70;99.90;;;;;;5057427;28;20049;-87
2021/11/26 05:32:44;;;;;;;11.25;8.60;;;1.70;99.90;;;;;;5074987;28;20040;-87
2021/11/26 05:35:13;;;;;;;10.80;8.07;;;1.70;99.90;;;;;;5057615;28;20066;-87
2021/11/26 05:37:40;;;;;;;16.48;8.30;;;1.70;99.90;;;;;;5074262;28;20053;-87
2021/11/26 05:40:09;;;;;;;12.18;7.80;;;1.70;99.90;;;;;;5074665;28;20048;-86
2021/11/26 05:42:36;;;;;;;10.68;7.97;;;1.80;99.90;;;;;;5074701;28;20416;-87
2021/11/26 05:45:05;;;;;;;10.07;7.35;;;1.80;99.90;;;;;;5057500;28;20084;-87
2021/11/26 05:47:32;;;;;;;9.27;7.32;;;1.80;99.90;;;;;;5057106;28;20083;-87
2021/11/26 05:50:00;;;;;;;10.73;8.05;;;1.80;99.90;;;;;;5057002;28;20131;-87
2021/11/26 05:52:27;;;;;;;9.18;7.13;;;1.90;99.90;;;;;;5056844;28;20044;-87
2021/11/26 05:54:54;;;;;;;9.85;7.50;;;1.90;99.90;;;;;;5057161;28;20083;-87
2021/11/26 05:57:21;;;;;;;10.77;7.70;;;1.90;99.90;;;;;;5056926;28;20048;-87
2021/11/26 05:59:47;;;;;;;9.90;7.40;;;1.90;99.90;;;;;;5074423;28;20469;-87
2021/11/26 06:02:14;;;;;;;13.70;9.63;;;2.00;99.90;;;;;;5056874;28;20049;-87
2021/11/26 06:04:41;;;;;;;11.40;7.82;;;2.00;99.90;;;;;;5056744;28;20091;-87
2021/11/26 06:07:08;;;;;;;8.35;6.95;;;2.00;99.90;;;;;;5056580;28;20135;-87
2021/11/26 06:09:38;;;;;;;9.57;6.90;;;2.10;99.90;;;;;;5056360;28;20072;-87
2021/11/26 06:12:08;;;;;;;8.90;6.80;;;2.00;99.90;;;;;;5056747;28;20127;-87
2021/11/26 06:14:36;;;;;;;9.32;6.93;;;2.00;99.90;;;;;;5073937;28;20056;-87
2021/11/26 06:17:03;;;;;;;8.88;6.85;;;2.00;99.90;;;;;;5073208;28;20054;-87
2021/11/26 06:19:30;;;;;;;12.70;8.18;;;2.00;99.90;;;;;;5055855;28;20049;-87
2021/11/26 06:22:01;;;;;;;15.00;9.75;;;1.90;99.90;;;;;;5056911;28;20059;-87
2021/11/26 06:24:27;;;;;;;13.88;8.80;;;1.90;99.90;;;;;;5056356;28;20408;-87
2021/11/26 06:26:54;;;;;;;13.02;8.52;;;1.80;99.90;;;;;;5056346;28;20412;-87
2021/11/26 06:29:21;;;;;;;13.73;8.40;;;1.90;99.90;;;;;;5056170;28;20082;-87
2021/11/26 06:31:48;;;;;;;23.70;10.18;;;1.90;99.90;;;;;;5056195;28;20087;-87
2021/11/26 06:34:14;;;;;;;13.02;9.35;;;1.80;99.90;;;;;;5056553;28;20044;-87
2021/11/26 06:36:42;;;;;;;16.52;9.40;;;1.90;99.90;;;;;;5077953;28;20048;-87
2021/11/26 06:39:09;;;;;;;19.77;9.82;;;1.90;99.90;;;;;;5056197;28;20052;-86
2021/11/26 06:41:36;;;;;;;14.90;9.95;;;1.80;99.90;;;;;;5073575;28;20048;-87
2021/11/26 06:44:03;;;;;;;15.18;10.70;;;1.70;99.90;;;;;;5055903;28;20050;-87
2021/11/26 06:46:30;;;;;;;13.02;9.43;;;1.70;99.90;;;;;;5055566;28;20485;-87
2021/11/26 06:48:56;;;;;;;11.40;8.65;;;1.80;99.90;;;;;;5073494;28;20051;-87
2021/11/26 06:51:23;;;;;;;11.63;8.48;;;1.80;99.90;;;;;;5056201;28;20047;-87
2021/11/26 06:53:50;;;;;;;12.93;8.43;;;1.80;99.90;;;;;;5056025;28;20050;-87
2021/11/26 06:56:16;;;;;;;13.80;9.00;;;1.80;99.90;;;;;;5073533;28;20041;-87
2021/11/26 06:58:43;;;;;;;14.70;8.70;;;1.80;99.90;;;;;;5055685;28;20052;-87
2021/11/26 07:01:12;;;;;;;15.82;9.88;;;1.70;99.90;;;;;;5046081;28;20054;-87
2021/11/26 07:03:39;;;;;;;10.32;8.25;;;1.70;99.90;;;;;;5063088;28;20489;-87
2021/11/26 07:06:06;;;;;;;14.85;8.70;;;1.80;99.90;;;;;;5052894;28;20055;-87
2021/11/26 07:08:32;;;;;;;13.57;9.30;;;1.80;99.90;;;;;;5055540;28;20044;-87
2021/11/26 07:10:59;;;;;;;22.45;12.25;;;1.90;99.90;;;;;;5055960;28;20052;-87
2021/11/26 07:13:26;;;;;;;26.00;13.02;;;1.90;99.90;;;;;;5055795;28;20128;-86
2021/11/26 07:15:53;;;;;;;14.80;9.15;;;2.00;99.90;;;;;;5055789;28;20051;-87
2021/11/26 07:18:19;;;;;;;13.43;9.18;;;2.00;99.90;;;;;;5055633;28;20131;-87
2021/11/26 07:20:46;;;;;;;11.98;8.70;;;1.90;99.90;;;;;;5073182;28;20098;-87
2021/11/26 07:23:13;;;;;;;15.23;7.90;;;2.00;99.90;;;;;;5055759;28;20058;-87
2021/11/26 07:25:40;;;;;;;9.35;7.82;;;2.00;99.90;;;;;;5055439;28;20044;-87
2021/11/26 07:28:07;;;;;;;14.43;8.48;;;2.00;99.90;;;;;;5072968;28;20044;-87
2021/11/26 07:30:34;;;;;;;13.18;9.02;;;2.10;99.90;;;;;;5077001;28;20044;-88
2021/11/26 07:33:01;;;;;;;17.45;10.20;;;2.20;99.90;;;;;;5060386;28;20044;-87
2021/11/26 07:35:27;;;;;;;17.02;9.43;;;2.20;99.90;;;;;;5077763;28;20055;-87
2021/11/26 07:37:54;;;;;;;10.23;8.15;;;2.20;99.90;;;;;;5059949;28;20074;-88
2021/11/26 07:40:21;;;;;;;15.30;10.98;;;2.20;99.90;;;;;;5059717;28;20049;-87
2021/11/26 07:42:48;;;;;;;18.75;14.20;;;2.30;99.90;;;;;;5057931;28;20079;-87
2021/11/26 07:45:15;;;;;;;35.45;22.98;;;2.40;99.90;;;;;;5057679;28;20036;-87
2021/11/26 07:47:42;;;;;;;38.55;26.80;;;2.40;99.90;;;;;;5075297;28;20084;-88
2021/11/26 07:50:11;;;;;;;26.33;19.98;;;2.50;99.90;;;;;;5058016;28;20169;-88
2021/11/26 07:52:41;;;;;;;13.32;11.00;;;2.60;99.90;;;;;;5057912;28;20135;-87
2021/11/26 07:55:09;;;;;;;14.43;10.25;;;2.60;99.90;;;;;;5057387;28;20128;-87
2021/11/26 07:57:42;;;;;;;10.80;7.57;;;2.60;99.90;;;;;;5067981;28;20071;-87
2021/11/26 08:00:10;;;;;;;14.80;10.40;;;2.60;99.90;;;;;;5047058;28;20055;-88
2021/11/26 08:02:37;;;;;;;20.83;15.50;;;2.70;99.90;;;;;;5049282;28;20560;-87
2021/11/26 08:05:04;;;;;;;15.68;12.40;;;2.70;99.90;;;;;;5066924;28;20041;-87
2021/11/26 08:07:31;;;;;;;16.67;11.68;;;2.80;99.90;;;;;;5058831;28;20048;-87
2021/11/26 08:09:58;;;;;;;12.20;9.65;;;2.80;99.90;;;;;;5038851;28;20441;-88
2021/11/26 08:12:24;;;;;;;11.32;8.63;;;2.90;99.90;;;;;;5056238;28;20155;-87
2021/11/26 08:14:53;;;;;;;11.65;8.02;;;2.90;99.90;;;;;;5038795;28;20095;-88
2021/11/26 08:17:19;;;;;;;9.90;8.05;;;2.90;99.90;;;;;;5038597;28;20061;-87
2021/11/26 08:19:46;;;;;;;12.73;7.72;;;2.90;99.90;;;;;;5038624;28;20408;-87
2021/11/26 08:22:18;;;;;;;12.77;9.00;;;2.90;99.90;;;;;;5039207;28;20081;-87
2021/11/26 08:24:45;;;;;;;22.25;17.23;;;2.80;99.90;;;;;;5038445;28;20404;-87
2021/11/26 08:27:12;;;;;;;14.93;10.50;;;2.90;99.90;;;;;;5038595;28;20052;-87
2021/11/26 08:29:39;;;;;;;14.50;9.13;;;3.00;99.90;;;;;;5038398;28;20500;-87
2021/11/26 08:32:05;;;;;;;14.55;8.82;;;3.10;99.90;;;;;;5038704;28;20132;-87
2021/11/26 08:34:32;;;;;;;11.55;8.40;;;3.10;99.90;;;;;;5055873;28;20493;-87
2021/11/26 08:36:59;;;;;;;26.25;20.25;;;3.20;99.90;;;;;;5037989;28;20045;-87
2021/11/26 08:39:26;;;;;;;16.02;10.60;;;3.30;99.90;;;;;;5038617;28;20052;-87
2021/11/26 08:41:53;;;;;;;24.65;15.73;;;3.30;99.90;;;;;;5037529;28;20045;-88
2021/11/26 08:44:20;;;;;;;16.83;10.45;;;3.30;99.90;;;;;;5038821;28;20051;-88
2021/11/26 08:46:46;;;;;;;14.73;9.10;;;3.30;99.90;;;;;;5038350;28;20063;-87
2021/11/26 08:49:13;;;;;;;15.13;10.20;;;3.20;99.90;;;;;;5038795;28;20099;-87
2021/11/26 08:51:42;;;;;;;12.50;9.48;;;3.20;99.90;;;;;;5038348;28;20075;-88
2021/11/26 08:54:09;;;;;;;15.43;10.25;;;3.30;99.90;;;;;;5055739;28;20049;-87
2021/11/26 08:56:36;;;;;;;11.77;8.98;;;3.40;99.90;;;;;;5038018;28;20132;-88
2021/11/26 08:59:03;;;;;;;14.00;9.50;;;3.50;99.90;;;;;;5038345;28;20048;-88
2021/11/26 09:01:31;;;;;;;13.52;9.93;;;3.60;99.90;;;;;;5038100;28;20132;-88
2021/11/26 09:03:58;;;;;;;14.73;9.35;;;3.70;99.90;;;;;;5037244;28;20056;-87
2021/11/26 09:06:26;;;;;;;12.15;8.60;;;3.70;99.90;;;;;;5038277;28;20091;-87
2021/11/26 09:08:53;;;;;;;13.68;10.00;;;3.90;99.90;;;;;;5042183;28;20132;-87
2021/11/26 09:11:20;;;;;;;14.00;10.00;;;3.90;99.90;;;;;;5037821;28;20490;-87
2021/11/26 09:13:47;;;;;;;15.80;10.18;;;4.00;99.90;;;;;;5055431;28;20053;-87
2021/11/26 09:16:14;;;;;;;20.30;10.95;;;3.90;99.90;;;;;;5035823;28;20052;-88
2021/11/26 09:18:41;;;;;;;17.00;9.85;;;3.90;99.90;;;;;;5037257;28;20071;-88
2021/11/26 09:21:07;;;;;;;15.60;10.10;;;3.80;99.90;;;;;;5054129;28;20084;-86
2021/11/26 09:23:34;;;;;;;14.00;9.77;;;3.80;99.90;;;;;;5055185;28;20416;-87
2021/11/26 09:26:03;;;;;;;14.65;9.98;;;3.80;99.90;;;;;;5038173;28;20117;-87
2021/11/26 09:28:29;;;;;;;17.55;10.77;;;3.80;99.90;;;;;;5037563;28;20053;-87
2021/11/26 09:30:56;;;;;;;18.17;10.77;;;3.70;99.90;;;;;;5037721;28;20076;-87
2021/11/26 09:33:27;;;;;;;15.77;10.05;;;3.70;99.90;;;;;;5037564;28;20131;-87
2021/11/26 09:35:56;;;;;;;15.77;9.93;;;3.80;99.90;;;;;;5054918;28;20166;-87
2021/11/26 09:38:23;;;;;;;15.65;10.45;;;3.90;99.90;;;;;;5037557;28;20050;-87
2021/11/26 09:40:50;;;;;;;14.75;9.88;;;3.90;99.90;;;;;;5037571;28;20120;-87
2021/11/26 09:43:18;;;;;;;15.80;9.65;;;3.90;99.90;;;;;;5037384;28;20049;-87
2021/11/26 09:45:45;;;;;;;13.02;8.73;;;3.90;99.90;;;;;;5037615;28;20053;-87
2021/11/26 09:48:12;;;;;;;15.70;9.60;;;3.80;99.90;;;;;;5037190;28;20049;-87
2021/11/26 09:50:38;;;;;;;13.38;8.82;;;3.90;99.90;;;;;;5037497;28;20044;-87
2021/11/26 09:53:16;;;;;;;11.95;8.60;;;3.90;99.90;;;;;;5037238;28;20045;-86
2021/11/26 09:55:55;;;;;;;14.55;8.73;;;4.00;99.90;;;;;;5037168;28;20504;-87
2021/11/26 09:58:23;;;;;;;11.82;7.75;;;4.00;99.90;;;;;;5036755;28;20053;-87
2021/11/26 10:00:53;;;;;;;11.32;7.47;;;4.10;99.90;;;;;;5054365;28;20072;-86
2021/11/26 10:03:42;;;;;;;11.00;7.53;;;4.00;99.90;;;;;;5037105;28;20076;-87
2021/11/26 10:06:36;;;;;;;11.93;7.97;;;4.00;99.90;;;;;;5036743;28;20045;-86
2021/11/26 10:09:10;;;;;;;11.18;6.53;;;4.00;99.90;;;;;;5037238;28;20423;-87
2021/11/26 10:11:44;;;;;;;9.05;6.47;;;3.90;99.90;;;;;;5054408;28;20408;-88
2021/11/26 10:14:17;;;;;;;13.52;7.03;;;3.90;99.90;;;;;;5054870;28;20089;-86
2021/11/26 10:16:55;;;;;;;16.33;9.10;;;3.90;99.90;;;;;;5054357;28;20048;-87
2021/11/26 10:19:34;;;;;;;14.70;7.05;;;3.90;99.90;;;;;;5054482;28;20053;-87
2021/11/26 10:22:13;;;;;;;9.57;6.50;;;3.80;99.90;;;;;;5040937;28;20238;-86
2021/11/26 10:24:40;;;;;;;8.98;5.90;;;3.80;99.90;;;;;;5038288;28;20167;-87
2021/11/26 10:27:07;;;;;;;13.60;8.55;;;3.80;99.90;;;;;;5036506;28;20048;-87
2021/11/26 10:29:36;;;;;;;11.73;6.82;;;3.90;99.90;;;;;;5036319;28;20049;-86
2021/11/26 10:32:09;;;;;;;6.80;5.72;;;3.90;99.90;;;;;;5053775;28;20136;-88
2021/11/26 10:34:40;;;;;;;7.47;5.30;;;3.80;99.90;;;;;;5036424;28;20099;-86
2021/11/26 10:37:19;;;;;;;7.32;5.90;;;3.80;99.90;;;;;;5036008;28;20079;-87
2021/11/26 10:39:46;;;;;;;6.15;5.28;;;3.70;99.90;;;;;;5035981;28;20098;-87
2021/11/26 10:42:25;;;;;;;8.75;6.22;;;3.70;99.90;;;;;;5034965;28;20127;-87
2021/11/26 10:45:00;;;;;;;8.80;5.80;;;3.70;99.90;;;;;;5036395;28;20144;-88
2021/11/26 10:50:40;;;;;;;11.40;5.97;;;3.80;99.90;;;;;;5053478;28;20096;-87
2021/11/26 10:56:50;;;;;;;8.50;6.13;;;3.80;99.90;;;;;;5053620;28;20052;-88
2021/11/26 11:01:08;;;;;;;23.15;5.90;;;3.90;99.90;;;;;;5053377;28;20083;-87
2021/11/26 11:03:35;;;;;;;10.02;5.80;;;4.00;99.90;;;;;;5035595;28;20049;-88
2021/11/26 11:06:02;;;;;;;8.57;5.13;;;4.00;99.90;;;;;;5036198;28;20083;-87
2021/11/26 11:08:30;;;;;;;6.20;4.43;;;4.00;99.90;;;;;;5053208;28;20055;-87
2021/11/26 11:11:04;;;;;;;26.35;6.13;;;4.00;99.90;;;;;;5035814;28;20049;-86
2021/11/26 11:13:30;;;;;;;7.40;4.38;;;4.10;99.90;;;;;;5035688;28;20128;-87
2021/11/26 11:16:06;;;;;;;18.05;6.50;;;4.20;99.90;;;;;;5035937;28;20551;-87
2021/11/26 11:18:33;;;;;;;11.55;5.20;;;4.30;99.90;;;;;;5035588;28;20127;-86
2021/11/26 11:21:00;;;;;;;4.20;2.83;;;4.40;99.90;;;;;;5035653;28;20053;-87
2021/11/26 11:23:27;;;;;;;8.93;3.40;;;5.60;99.90;;;;;;5035541;28;20517;-87
2021/11/26 11:25:57;;;;;;;4.55;3.33;;;6.80;99.90;;;;;;5035756;28;20406;-87
2021/11/26 11:28:25;;;;;;;24.58;4.13;;;8.40;99.90;;;;;;5035536;28;20060;-88
2021/11/26 11:30:52;;;;;;;6.38;2.80;;;9.90;94.00;;;;;;5035778;28;20053;-88
2021/11/26 11:33:21;;;;;;;9.57;2.70;;;10.40;86.00;;;;;;5035489;28;20481;-89
2021/11/26 11:35:49;;;;;;;13.35;2.78;;;10.60;81.60;;;;;;5035791;28;20124;-88
2021/11/26 11:38:18;;;;;;;10.15;2.90;;;10.50;78.90;;;;;;5037263;28;20051;-88
2021/11/26 11:40:48;;;;;;;12.65;3.28;;;10.00;79.00;;;;;;5036949;28;20080;-88
2021/11/26 11:43:21;;;;;;;6.22;3.15;;;9.60;82.20;;;;;;5035541;28;20084;-88
2021/11/26 11:46:01;;;;;;;7.28;2.70;;;8.60;85.80;;;;;;5053137;28;20081;-88
2021/11/26 11:48:56;;;;;;;6.00;2.97;;;7.90;90.50;;;;;;5052780;28;20459;-87
2021/11/26 11:51:33;;;;;;;4.20;2.60;;;8.50;93.50;;;;;;5035603;28;20049;-88
2021/11/26 11:54:12;;;;;;;4.80;2.25;;;9.10;86.20;;;;;;5035545;28;20056;-88
2021/11/26 11:56:51;;;;;;;4.60;2.63;;;9.30;84.90;;;;;;5035601;28;20045;-88
2021/11/26 11:59:33;;;;;;;7.82;3.00;;;9.20;84.30;;;;;;5035431;28;20085;-88
2021/11/26 12:02:02;;;;;;;6.57;3.08;;;9.10;88.00;;;;;;5052949;28;20517;-87
2021/11/26 12:04:37;;;;;;;6.38;3.15;;;9.20;88.30;;;;;;5052198;28;20110;-89
2021/11/26 12:07:05;;;;;;;8.27;3.45;;;8.50;87.40;;;;;;5035520;28;20052;-87
2021/11/26 12:09:33;;;;;;;9.35;3.67;;;7.60;91.50;;;;;;5035376;28;20243;-89
2021/11/26 12:12:06;;;;;;;6.45;3.28;;;6.80;95.20;;;;;;5035649;28;20477;-88
2021/11/26 12:14:49;;;;;;;7.85;3.28;;;6.20;99.90;;;;;;5035669;28;20579;-88
2021/11/26 12:17:37;;;;;;;22.95;4.57;;;5.60;99.90;;;;;;5038671;28;20059;-88
2021/11/26 12:20:13;;;;;;;10.50;4.55;;;5.20;99.90;;;;;;5056510;28;20067;-88
2021/11/26 12:22:45;;;;;;;7.28;4.93;;;4.80;99.90;;;;;;5039345;28;20095;-87
2021/11/26 12:25:32;;;;;;;22.80;5.73;;;4.60;99.90;;;;;;5039147;28;20053;-88
2021/11/26 12:28:17;;;;;;;14.07;4.95;;;4.50;99.90;;;;;;5037940;28;20660;-87
2021/11/26 12:30:44;;;;;;;8.05;5.60;;;4.40;99.90;;;;;;5038780;28;20051;-88
2021/11/26 12:33:25;;;;;;;13.48;5.45;;;4.40;99.90;;;;;;5038847;28;20076;-89
2021/11/26 12:36:14;;;;;;;9.88;6.25;;;4.30;99.90;;;;;;5041624;28;20134;-88
2021/11/26 12:38:44;;;;;;;12.15;6.65;;;4.30;99.90;;;;;;5038873;28;20140;-86
2021/11/26 12:41:13;;;;;;;11.60;6.07;;;4.20;99.90;;;;;;5038468;28;20080;-87
2021/11/26 12:43:48;;;;;;;10.02;6.40;;;4.20;99.90;;;;;;5038337;28;20090;-89
2021/11/26 12:46:23;;;;;;;10.75;6.70;;;4.20;99.90;;;;;;5056004;28;20135;-88
2021/11/26 12:49:14;;;;;;;16.65;7.03;;;4.20;99.90;;;;;;5038536;28;20048;-87
2021/11/26 12:51:44;;;;;;;12.75;6.78;;;4.20;99.90;;;;;;5038763;28;20052;-87
2021/11/26 12:54:28;;;;;;;11.02;6.97;;;4.30;99.90;;;;;;5041802;28;20128;-88
2021/11/26 12:56:57;;;;;;;9.95;6.85;;;4.30;99.90;;;;;;5039616;28;20047;-87
2021/11/26 12:59:34;;;;;;;14.75;6.90;;;4.20;99.90;;;;;;5055872;28;20055;-87